createdAt,value
2017-09-08T00:00:39.320Z,0
2017-09-08T00:01:39.386Z,0
2017-09-08T00:02:39.379Z,0
2017-09-08T00:03:39.320Z,0
2017-09-08T00:04:39.310Z,0
2017-09-08T00:05:39.296Z,0
2017-09-08T00:06:39.326Z,0
2017-09-08T00:07:39.299Z,0
2017-09-08T00:08:39.393Z,0
2017-09-08T00:09:39.330Z,0
2017-09-08T00:10:39.331Z,0
2017-09-08T00:11:39.347Z,0
2017-09-08T00:12:39.357Z,0
2017-09-08T00:13:39.361Z,0
2017-09-08T00:14:39.351Z,0
2017-09-08T00:15:39.345Z,0
2017-09-08T00:16:39.396Z,0
2017-09-08T00:17:39.383Z,0
2017-09-08T00:18:39.296Z,0
2017-09-08T00:19:39.328Z,0
2017-09-08T00:20:39.304Z,0
2017-09-08T00:21:39.336Z,0
2017-09-08T00:22:39.334Z,0
2017-09-08T00:23:39.404Z,0
2017-09-08T00:24:39.390Z,0
2017-09-08T00:25:39.369Z,0
2017-09-08T00:26:39.360Z,0
2017-09-08T00:27:39.303Z,0
2017-09-08T00:28:39.364Z,0
2017-09-08T00:29:39.303Z,0
2017-09-08T00:30:39.304Z,0
2017-09-08T00:31:39.366Z,0
2017-09-08T00:32:39.403Z,0
2017-09-08T00:33:39.366Z,0
2017-09-08T00:34:39.333Z,0
2017-09-08T00:35:39.361Z,0
2017-09-08T00:36:39.317Z,0
2017-09-08T00:37:39.336Z,0
2017-09-08T00:38:39.397Z,0
2017-09-08T00:39:39.347Z,0
2017-09-08T00:40:39.346Z,0
2017-09-08T00:41:39.341Z,0
2017-09-08T00:42:39.344Z,0
2017-09-08T00:43:39.379Z,0
2017-09-08T00:44:39.345Z,0
2017-09-08T00:45:39.321Z,0
2017-09-08T00:46:39.310Z,0
2017-09-08T00:47:39.317Z,0
2017-09-08T00:48:39.335Z,0
2017-09-08T00:49:39.301Z,0
2017-09-08T00:50:39.319Z,0
2017-09-08T00:51:39.345Z,0
2017-09-08T00:52:39.290Z,0
2017-09-08T00:53:39.342Z,0
2017-09-08T00:54:39.298Z,0
2017-09-08T00:55:39.346Z,0
2017-09-08T00:56:39.327Z,0
2017-09-08T00:57:39.340Z,0
2017-09-08T00:58:39.318Z,0
2017-09-08T00:59:39.273Z,0
2017-09-08T01:00:39.298Z,0
2017-09-08T01:01:39.345Z,0
2017-09-08T01:02:39.342Z,0
2017-09-08T01:03:39.333Z,0
2017-09-08T01:04:39.354Z,0
2017-09-08T01:05:39.347Z,0
2017-09-08T01:06:39.317Z,0
2017-09-08T01:07:39.321Z,0
2017-09-08T01:08:39.380Z,0
2017-09-08T01:09:39.352Z,0
2017-09-08T01:10:39.356Z,0
2017-09-08T01:11:39.412Z,0
2017-09-08T01:12:39.351Z,0
2017-09-08T01:13:39.326Z,0
2017-09-08T01:14:39.391Z,0
2017-09-08T01:15:39.324Z,0
2017-09-08T01:16:39.358Z,0
2017-09-08T01:17:39.336Z,0
2017-09-08T01:18:39.371Z,0
2017-09-08T01:19:39.405Z,0
2017-09-08T01:20:39.363Z,0
2017-09-08T01:21:39.400Z,0
2017-09-08T01:22:39.401Z,0
2017-09-08T01:23:39.374Z,0
2017-09-08T01:24:39.340Z,0
2017-09-08T01:25:39.381Z,0
2017-09-08T01:26:39.339Z,0
2017-09-08T01:27:39.343Z,0
2017-09-08T01:28:39.437Z,0
2017-09-08T01:29:39.393Z,0
2017-09-08T01:30:39.398Z,0
2017-09-08T01:31:39.368Z,0
2017-09-08T01:32:39.375Z,0
2017-09-08T01:33:39.400Z,0
2017-09-08T01:34:39.401Z,0
2017-09-08T01:35:39.435Z,0
2017-09-08T01:36:39.343Z,0
2017-09-08T01:37:39.327Z,0
2017-09-08T01:38:39.332Z,0
2017-09-08T01:39:39.345Z,0
2017-09-08T01:40:39.360Z,0
2017-09-08T01:41:39.344Z,0
2017-09-08T01:42:39.331Z,0
2017-09-08T01:43:39.368Z,0
2017-09-08T01:44:39.345Z,0
2017-09-08T01:45:39.351Z,0
2017-09-08T01:46:39.446Z,0
2017-09-08T01:47:39.377Z,0
2017-09-08T01:48:39.403Z,0
2017-09-08T01:49:39.389Z,0
2017-09-08T01:50:39.418Z,0
2017-09-08T01:51:39.449Z,0
2017-09-08T01:52:39.416Z,0
2017-09-08T01:53:39.355Z,0
2017-09-08T01:54:39.425Z,0
2017-09-08T01:55:39.490Z,0
2017-09-08T01:56:39.413Z,0
2017-09-08T01:57:39.377Z,0
2017-09-08T01:58:39.414Z,0
2017-09-08T01:59:39.352Z,0
2017-09-08T02:00:39.352Z,0
2017-09-08T02:01:39.417Z,0
2017-09-08T02:02:39.349Z,0
2017-09-08T02:03:39.359Z,0
2017-09-08T02:04:39.414Z,0
2017-09-08T02:05:39.382Z,0
2017-09-08T02:06:39.345Z,0
2017-09-08T02:07:39.344Z,0
2017-09-08T02:08:39.345Z,0
2017-09-08T02:09:39.376Z,0
2017-09-08T02:10:39.301Z,0
2017-09-08T02:11:39.347Z,0
2017-09-08T02:12:39.380Z,0
2017-09-08T02:13:39.362Z,0
2017-09-08T02:14:39.353Z,0
2017-09-08T02:15:39.364Z,0
2017-09-08T02:16:39.367Z,0
2017-09-08T02:17:39.375Z,0
2017-09-08T02:18:39.406Z,0
2017-09-08T02:19:39.435Z,0
2017-09-08T02:20:39.458Z,0
2017-09-08T02:21:39.437Z,0
2017-09-08T02:22:39.426Z,0
2017-09-08T02:23:39.425Z,0
2017-09-08T02:24:39.439Z,0
2017-09-08T02:25:39.463Z,0
2017-09-08T02:26:39.398Z,0
2017-09-08T02:27:39.349Z,0
2017-09-08T02:28:39.398Z,0
2017-09-08T02:29:39.370Z,0
2017-09-08T02:30:39.353Z,0
2017-09-08T02:31:39.412Z,0
2017-09-08T02:32:39.402Z,0
2017-09-08T02:33:39.390Z,0
2017-09-08T02:34:39.405Z,0
2017-09-08T02:35:39.380Z,0
2017-09-08T02:36:39.378Z,0
2017-09-08T02:37:39.363Z,0
2017-09-08T02:38:39.378Z,0
2017-09-08T02:39:39.378Z,0
2017-09-08T02:40:39.375Z,0
2017-09-08T02:41:39.317Z,0
2017-09-08T02:42:39.319Z,0
2017-09-08T02:43:39.384Z,0
2017-09-08T02:44:39.381Z,0
2017-09-08T02:45:39.319Z,0
2017-09-08T02:46:39.370Z,0
2017-09-08T02:47:39.410Z,0
2017-09-08T02:48:39.444Z,0
2017-09-08T02:49:39.385Z,0
2017-09-08T02:50:39.384Z,0
2017-09-08T02:51:39.477Z,0
2017-09-08T02:52:39.417Z,0
2017-09-08T02:53:39.409Z,0
2017-09-08T02:54:39.444Z,0
2017-09-08T02:55:39.442Z,0
2017-09-08T02:56:39.412Z,0
2017-09-08T02:57:39.540Z,0
2017-09-08T02:58:39.446Z,0
2017-09-08T02:59:39.416Z,0
2017-09-08T03:00:39.389Z,0
2017-09-08T03:01:39.452Z,0
2017-09-08T03:02:39.449Z,0
2017-09-08T03:03:39.449Z,0
2017-09-08T03:04:39.390Z,0
2017-09-08T03:05:39.454Z,0
2017-09-08T03:06:39.451Z,0
2017-09-08T03:07:39.453Z,0
2017-09-08T03:08:39.452Z,0
2017-09-08T03:09:39.495Z,0
2017-09-08T03:10:39.488Z,0
2017-09-08T03:11:39.398Z,0
2017-09-08T03:12:39.406Z,0
2017-09-08T03:13:39.442Z,0
2017-09-08T03:14:39.406Z,0
2017-09-08T03:15:39.437Z,0
2017-09-08T03:16:39.429Z,0
2017-09-08T03:17:39.403Z,0
2017-09-08T03:18:39.437Z,0
2017-09-08T03:19:39.403Z,0
2017-09-08T03:20:39.439Z,0
2017-09-08T03:21:39.489Z,0
2017-09-08T03:22:39.497Z,0
2017-09-08T03:23:39.465Z,0
2017-09-08T03:24:39.465Z,0
2017-09-08T03:26:39.412Z,0
2017-09-08T03:27:39.408Z,0
2017-09-08T03:28:39.409Z,0
2017-09-08T03:29:39.444Z,0
2017-09-08T03:30:39.448Z,0
2017-09-08T03:31:39.443Z,0
2017-09-08T03:32:39.448Z,0
2017-09-08T03:33:39.481Z,0
2017-09-08T03:34:39.444Z,0
2017-09-08T03:35:39.485Z,0
2017-09-08T03:36:39.503Z,0
2017-09-08T03:37:39.424Z,0
2017-09-08T03:38:39.450Z,0
2017-09-08T03:39:39.422Z,0
2017-09-08T03:40:39.513Z,0
2017-09-08T03:41:39.442Z,0
2017-09-08T03:42:39.491Z,0
2017-09-08T03:43:39.448Z,0
2017-09-08T03:44:39.492Z,0
2017-09-08T03:45:39.494Z,0
2017-09-08T03:46:39.426Z,0
2017-09-08T03:47:39.515Z,0
2017-09-08T03:48:39.479Z,0
2017-09-08T03:49:39.459Z,0
2017-09-08T03:50:39.482Z,0
2017-09-08T03:51:39.496Z,0
2017-09-08T03:52:39.459Z,0
2017-09-08T03:53:39.432Z,0
2017-09-08T03:54:39.501Z,0
2017-09-08T03:55:39.481Z,0
2017-09-08T03:56:39.498Z,0
2017-09-08T03:57:39.520Z,0
2017-09-08T03:58:39.518Z,0
2017-09-08T03:59:39.494Z,0
2017-09-08T04:00:39.496Z,0
2017-09-08T04:01:39.427Z,0
2017-09-08T04:02:39.450Z,0
2017-09-08T04:03:39.443Z,0
2017-09-08T04:04:39.520Z,0
2017-09-08T04:05:39.469Z,0
2017-09-08T04:06:39.530Z,0
2017-09-08T04:07:39.434Z,0
2017-09-08T04:08:39.411Z,0
2017-09-08T04:09:39.434Z,0
2017-09-08T04:10:39.433Z,0
2017-09-08T04:11:39.387Z,0
2017-09-08T04:12:39.437Z,0
2017-09-08T04:13:39.447Z,0
2017-09-08T04:14:39.510Z,0
2017-09-08T04:15:39.460Z,0
2017-09-08T04:16:39.437Z,0
2017-09-08T04:17:39.546Z,0
2017-09-08T04:18:39.460Z,0
2017-09-08T04:19:39.463Z,0
2017-09-08T04:20:39.466Z,0
2017-09-08T04:21:39.471Z,0
2017-09-08T04:22:39.497Z,0
2017-09-08T04:23:39.467Z,0
2017-09-08T04:24:39.504Z,0
2017-09-08T04:25:39.499Z,0
2017-09-08T04:26:39.440Z,0
2017-09-08T04:27:39.500Z,0
2017-09-08T04:28:39.468Z,0
2017-09-08T04:29:39.505Z,0
2017-09-08T04:30:39.499Z,0
2017-09-08T04:31:39.443Z,0
2017-09-08T04:32:39.471Z,0
2017-09-08T04:33:39.471Z,0
2017-09-08T04:34:39.510Z,0
2017-09-08T04:35:39.520Z,0
2017-09-08T04:36:39.506Z,0
2017-09-08T04:37:39.460Z,0
2017-09-08T04:38:39.450Z,0
2017-09-08T04:39:39.398Z,0
2017-09-08T04:40:39.463Z,0
2017-09-08T04:41:39.453Z,0
2017-09-08T04:42:39.455Z,0
2017-09-08T04:43:39.470Z,0
2017-09-08T04:44:39.392Z,0
2017-09-08T04:45:39.470Z,0
2017-09-08T04:46:39.476Z,0
2017-09-08T04:47:39.487Z,0
2017-09-08T04:48:39.507Z,0
2017-09-08T04:49:39.519Z,0
2017-09-08T04:50:39.497Z,0
2017-09-08T04:51:39.500Z,0
2017-09-08T04:52:39.520Z,0
2017-09-08T04:53:39.556Z,0
2017-09-08T04:54:39.482Z,0
2017-09-08T04:55:39.562Z,0
2017-09-08T04:56:39.567Z,0
2017-09-08T04:57:39.521Z,0
2017-09-08T04:58:39.492Z,0
2017-09-08T04:59:39.571Z,0
2017-09-08T05:00:39.564Z,0
2017-09-08T05:01:39.797Z,0
2017-09-08T05:02:39.526Z,0
2017-09-08T05:03:39.500Z,0
2017-09-08T05:04:39.539Z,0
2017-09-08T05:05:39.468Z,0
2017-09-08T05:06:39.523Z,0
2017-09-08T05:07:39.575Z,0
2017-09-08T05:08:39.542Z,0
2017-09-08T05:09:39.472Z,0
2017-09-08T05:10:39.497Z,0
2017-09-08T05:11:39.574Z,0
2017-09-08T05:12:39.545Z,0
2017-09-08T05:13:39.473Z,0
2017-09-08T05:14:39.476Z,0
2017-09-08T05:15:39.538Z,0
2017-09-08T05:16:39.572Z,0
2017-09-08T05:17:39.484Z,0
2017-09-08T05:18:39.546Z,0
2017-09-08T05:19:39.569Z,0
2017-09-08T05:20:39.476Z,0
2017-09-08T05:21:39.547Z,0
2017-09-08T05:22:39.574Z,0
2017-09-08T05:23:39.541Z,0
2017-09-08T05:24:39.575Z,0
2017-09-08T05:25:39.574Z,0
2017-09-08T05:26:39.490Z,0
2017-09-08T05:27:39.537Z,0
2017-09-08T05:28:39.520Z,0
2017-09-08T05:29:39.481Z,0
2017-09-08T05:30:39.539Z,0
2017-09-08T05:31:39.557Z,0
2017-09-08T05:32:39.554Z,0
2017-09-08T05:33:39.509Z,0
2017-09-08T05:34:39.589Z,0
2017-09-08T05:35:39.486Z,0
2017-09-08T05:36:39.584Z,0
2017-09-08T05:37:39.543Z,0
2017-09-08T05:38:39.506Z,0
2017-09-08T05:39:39.543Z,0
2017-09-08T05:40:39.479Z,0
2017-09-08T05:41:39.481Z,0
2017-09-08T05:42:39.543Z,0
2017-09-08T05:43:39.479Z,0
2017-09-08T05:44:39.543Z,0
2017-09-08T05:45:39.547Z,0
2017-09-08T05:46:39.483Z,0
2017-09-08T05:47:39.546Z,0
2017-09-08T05:48:39.519Z,0
2017-09-08T05:49:39.495Z,0
2017-09-08T05:50:39.535Z,0
2017-09-08T05:51:39.503Z,0
2017-09-08T05:52:39.561Z,0
2017-09-08T05:53:39.533Z,0
2017-09-08T05:54:39.589Z,0
2017-09-08T05:55:39.527Z,0
2017-09-08T05:56:39.561Z,0
2017-09-08T05:57:39.577Z,0
2017-09-08T05:58:39.595Z,0
2017-09-08T05:59:39.586Z,0
2017-09-08T06:00:39.575Z,0
2017-09-08T06:01:39.507Z,0
2017-09-08T06:02:39.597Z,0
2017-09-08T06:03:39.508Z,0
2017-09-08T06:04:39.578Z,0
2017-09-08T06:05:39.575Z,0
2017-09-08T06:06:39.504Z,0
2017-09-08T06:07:39.508Z,16
2017-09-08T06:08:39.535Z,18
2017-09-08T06:09:39.579Z,20
2017-09-08T06:10:39.542Z,22
2017-09-08T06:11:39.572Z,23
2017-09-08T06:12:39.574Z,24
2017-09-08T06:13:39.567Z,26
2017-09-08T06:14:39.505Z,27
2017-09-08T06:15:39.600Z,25
2017-09-08T06:16:39.561Z,27
2017-09-08T06:17:39.531Z,27
2017-09-08T06:18:39.564Z,27
2017-09-08T06:19:39.565Z,24
2017-09-08T06:20:39.533Z,24
2017-09-08T06:21:39.564Z,24
2017-09-08T06:22:39.509Z,24
2017-09-08T06:23:39.506Z,26
2017-09-08T06:24:39.501Z,29
2017-09-08T06:25:39.507Z,35
2017-09-08T06:26:39.564Z,37
2017-09-08T06:27:39.503Z,37
2017-09-08T06:28:39.571Z,38
2017-09-08T06:29:39.517Z,38
2017-09-08T06:30:39.540Z,40
2017-09-08T06:31:39.572Z,42
2017-09-08T06:32:39.568Z,44
2017-09-08T06:33:39.572Z,48
2017-09-08T06:34:39.537Z,52
2017-09-08T06:35:39.572Z,55
2017-09-08T06:36:39.509Z,57
2017-09-08T06:37:39.617Z,57
2017-09-08T06:38:39.609Z,58
2017-09-08T06:39:39.584Z,59
2017-09-08T06:40:39.622Z,61
2017-09-08T06:41:39.617Z,63
2017-09-08T06:42:39.619Z,67
2017-09-08T06:43:39.543Z,71
2017-09-08T06:44:39.527Z,77
2017-09-08T06:45:39.559Z,87
2017-09-08T06:46:39.546Z,94
2017-09-08T06:47:39.559Z,100
2017-09-08T06:48:39.503Z,105
2017-09-08T06:49:39.553Z,106
2017-09-08T06:50:39.549Z,109
2017-09-08T06:51:39.527Z,113
2017-09-08T06:52:39.481Z,107
2017-09-08T06:53:39.504Z,116
2017-09-08T06:54:39.553Z,118
2017-09-08T06:55:39.540Z,117
2017-09-08T06:56:39.544Z,107
2017-09-08T06:57:39.528Z,102
2017-09-08T06:58:39.529Z,104
2017-09-08T06:59:39.521Z,98
2017-09-08T07:00:39.525Z,93
2017-09-08T07:01:39.530Z,91
2017-09-08T07:02:39.526Z,93
2017-09-08T07:03:39.592Z,96
2017-09-08T07:04:39.587Z,96
2017-09-08T07:05:39.523Z,105
2017-09-08T07:06:39.558Z,109
2017-09-08T07:07:39.557Z,113
2017-09-08T07:08:39.491Z,118
2017-09-08T07:09:39.536Z,120
2017-09-08T07:10:39.523Z,125
2017-09-08T07:11:39.544Z,124
2017-09-08T07:12:39.490Z,125
2017-09-08T07:13:39.566Z,122
2017-09-08T07:14:39.539Z,113
2017-09-08T07:15:39.539Z,104
2017-09-08T07:16:39.570Z,97
2017-09-08T07:17:39.583Z,83
2017-09-08T07:18:39.611Z,74
2017-09-08T07:19:39.611Z,64
2017-09-08T07:20:39.554Z,61
2017-09-08T07:21:39.547Z,60
2017-09-08T07:22:39.583Z,55
2017-09-08T07:23:39.554Z,52
2017-09-08T07:24:39.647Z,49
2017-09-08T07:25:39.583Z,48
2017-09-08T07:26:39.566Z,48
2017-09-08T07:27:39.569Z,51
2017-09-08T07:28:39.500Z,54
2017-09-08T07:29:39.559Z,55
2017-09-08T07:30:39.548Z,55
2017-09-08T07:31:39.570Z,55
2017-09-08T07:32:39.617Z,54
2017-09-08T07:33:39.563Z,56
2017-09-08T07:34:39.542Z,56
2017-09-08T07:35:39.559Z,56
2017-09-08T07:36:39.551Z,55
2017-09-08T07:37:39.547Z,56
2017-09-08T07:38:39.553Z,56
2017-09-08T07:39:39.619Z,57
2017-09-08T07:40:39.551Z,61
2017-09-08T07:41:39.589Z,65
2017-09-08T07:42:39.558Z,68
2017-09-08T07:43:39.553Z,69
2017-09-08T07:44:39.591Z,68
2017-09-08T07:45:39.566Z,67
2017-09-08T07:46:39.581Z,69
2017-09-08T07:47:39.535Z,70
2017-09-08T07:48:39.529Z,74
2017-09-08T07:49:39.586Z,72
2017-09-08T07:50:39.569Z,67
2017-09-08T07:51:39.593Z,59
2017-09-08T07:52:39.571Z,54
2017-09-08T07:53:39.583Z,52
2017-09-08T07:54:39.534Z,52
2017-09-08T07:55:39.570Z,52
2017-09-08T07:56:39.571Z,54
2017-09-08T07:57:39.590Z,58
2017-09-08T07:58:39.669Z,60
2017-09-08T07:59:39.658Z,61
2017-09-08T08:00:39.607Z,63
2017-09-08T08:01:39.625Z,64
2017-09-08T08:02:39.665Z,65
2017-09-08T08:03:39.592Z,68
2017-09-08T08:04:39.670Z,68
2017-09-08T08:05:39.574Z,73
2017-09-08T08:06:39.573Z,71
2017-09-08T08:07:39.596Z,69
2017-09-08T08:08:39.570Z,65
2017-09-08T08:09:39.573Z,60
2017-09-08T08:10:39.552Z,60
2017-09-08T08:11:39.545Z,64
2017-09-08T08:12:39.595Z,72
2017-09-08T08:13:39.544Z,77
2017-09-08T08:14:39.550Z,77
2017-09-08T08:15:39.607Z,77
2017-09-08T08:16:39.596Z,75
2017-09-08T08:17:39.647Z,71
2017-09-08T08:18:39.673Z,75
2017-09-08T08:19:39.670Z,79
2017-09-08T08:20:39.616Z,81
2017-09-08T08:21:39.641Z,84
2017-09-08T08:22:39.672Z,97
2017-09-08T08:23:39.649Z,113
2017-09-08T08:24:39.625Z,127
2017-09-08T08:25:39.583Z,135
2017-09-08T08:26:39.609Z,135
2017-09-08T08:27:39.625Z,134
2017-09-08T08:28:39.609Z,134
2017-09-08T08:29:39.613Z,131
2017-09-08T08:30:39.610Z,127
2017-09-08T08:31:39.644Z,123
2017-09-08T08:32:39.643Z,133
2017-09-08T08:33:39.580Z,141
2017-09-08T08:34:39.647Z,145
2017-09-08T08:35:39.583Z,139
2017-09-08T08:36:39.644Z,139
2017-09-08T08:37:39.612Z,135
2017-09-08T08:38:39.664Z,132
2017-09-08T08:39:39.631Z,130
2017-09-08T08:40:39.626Z,129
2017-09-08T08:41:39.593Z,131
2017-09-08T08:42:39.724Z,130
2017-09-08T08:43:39.683Z,129
2017-09-08T08:44:39.595Z,130
2017-09-08T08:45:39.650Z,139
2017-09-08T08:46:39.617Z,150
2017-09-08T08:47:39.668Z,161
2017-09-08T08:48:39.648Z,167
2017-09-08T08:49:39.605Z,176
2017-09-08T08:50:39.650Z,175
2017-09-08T08:51:39.622Z,165
2017-09-08T08:52:39.597Z,155
2017-09-08T08:53:39.594Z,150
2017-09-08T08:54:39.663Z,146
2017-09-08T08:55:39.628Z,147
2017-09-08T08:56:39.661Z,142
2017-09-08T08:57:39.587Z,137
2017-09-08T08:58:39.611Z,136
2017-09-08T08:59:39.677Z,137
2017-09-08T09:00:39.606Z,139
2017-09-08T09:01:39.702Z,146
2017-09-08T09:02:39.642Z,162
2017-09-08T09:03:39.637Z,176
2017-09-08T09:04:39.702Z,187
2017-09-08T09:05:39.612Z,201
2017-09-08T09:06:39.705Z,212
2017-09-08T09:07:39.610Z,225
2017-09-08T09:08:39.661Z,236
2017-09-08T09:09:39.634Z,247
2017-09-08T09:10:39.635Z,256
2017-09-08T09:11:39.665Z,253
2017-09-08T09:12:39.604Z,252
2017-09-08T09:13:39.633Z,258
2017-09-08T09:14:39.674Z,263
2017-09-08T09:15:39.607Z,262
2017-09-08T09:16:39.609Z,252
2017-09-08T09:17:39.670Z,234
2017-09-08T09:18:39.726Z,205
2017-09-08T09:19:39.626Z,186
2017-09-08T09:20:39.620Z,174
2017-09-08T09:21:39.721Z,175
2017-09-08T09:22:39.713Z,194
2017-09-08T09:23:39.620Z,229
2017-09-08T09:24:39.651Z,286
2017-09-08T09:25:39.620Z,343
2017-09-08T09:26:39.652Z,365
2017-09-08T09:27:39.639Z,360
2017-09-08T09:28:39.689Z,342
2017-09-08T09:29:39.694Z,325
2017-09-08T09:30:39.649Z,318
2017-09-08T09:31:39.718Z,305
2017-09-08T09:32:39.720Z,290
2017-09-08T09:33:39.661Z,281
2017-09-08T09:34:39.624Z,271
2017-09-08T09:35:39.718Z,272
2017-09-08T09:36:39.646Z,291
2017-09-08T09:37:39.699Z,301
2017-09-08T09:38:39.681Z,297
2017-09-08T09:39:39.641Z,287
2017-09-08T09:40:39.624Z,277
2017-09-08T09:41:39.653Z,263
2017-09-08T09:42:39.625Z,259
2017-09-08T09:43:39.653Z,257
2017-09-08T09:44:39.620Z,259
2017-09-08T09:45:39.624Z,261
2017-09-08T09:46:39.653Z,266
2017-09-08T09:47:39.626Z,271
2017-09-08T09:48:39.687Z,271
2017-09-08T09:49:39.670Z,273
2017-09-08T09:50:39.688Z,273
2017-09-08T09:51:39.705Z,276
2017-09-08T09:52:39.729Z,278
2017-09-08T09:53:39.659Z,279
2017-09-08T09:54:39.695Z,285
2017-09-08T09:55:39.711Z,294
2017-09-08T09:56:39.638Z,305
2017-09-08T09:57:39.639Z,317
2017-09-08T09:58:39.659Z,329
2017-09-08T09:59:39.628Z,346
2017-09-08T10:00:39.634Z,354
2017-09-08T10:01:39.624Z,360
2017-09-08T10:02:39.635Z,364
2017-09-08T10:03:39.712Z,374
2017-09-08T10:04:39.699Z,386
2017-09-08T10:05:39.713Z,390
2017-09-08T10:06:39.635Z,392
2017-09-08T10:07:39.678Z,384
2017-09-08T10:08:39.646Z,376
2017-09-08T10:09:39.647Z,368
2017-09-08T10:10:39.653Z,354
2017-09-08T10:11:39.682Z,347
2017-09-08T10:12:39.734Z,349
2017-09-08T10:13:39.744Z,348
2017-09-08T10:14:39.649Z,340
2017-09-08T10:15:39.690Z,319
2017-09-08T10:16:39.652Z,304
2017-09-08T10:17:39.667Z,301
2017-09-08T10:18:39.643Z,307
2017-09-08T10:19:39.704Z,308
2017-09-08T10:20:39.646Z,307
2017-09-08T10:21:39.675Z,290
2017-09-08T10:22:39.639Z,282
2017-09-08T10:23:39.670Z,295
2017-09-08T10:24:39.710Z,305
2017-09-08T10:25:39.674Z,304
2017-09-08T10:26:39.650Z,291
2017-09-08T10:27:39.640Z,257
2017-09-08T10:28:39.679Z,229
2017-09-08T10:29:39.653Z,226
2017-09-08T10:30:39.713Z,221
2017-09-08T10:31:39.656Z,218
2017-09-08T10:32:39.646Z,227
2017-09-08T10:33:39.648Z,225
2017-09-08T10:34:39.686Z,212
2017-09-08T10:35:39.650Z,206
2017-09-08T10:36:39.659Z,214
2017-09-08T10:37:39.651Z,241
2017-09-08T10:38:39.661Z,268
2017-09-08T10:39:39.683Z,286
2017-09-08T10:40:39.657Z,290
2017-09-08T10:41:39.665Z,283
2017-09-08T10:42:39.662Z,279
2017-09-08T10:43:39.687Z,284
2017-09-08T10:44:39.642Z,297
2017-09-08T10:45:39.668Z,308
2017-09-08T10:46:39.749Z,311
2017-09-08T10:47:39.678Z,303
2017-09-08T10:48:39.693Z,291
2017-09-08T10:49:39.745Z,280
2017-09-08T10:50:39.693Z,268
2017-09-08T10:51:39.760Z,248
2017-09-08T10:52:39.742Z,233
2017-09-08T10:53:39.734Z,225
2017-09-08T10:54:39.676Z,223
2017-09-08T10:55:39.759Z,223
2017-09-08T10:56:39.707Z,226
2017-09-08T10:57:39.693Z,224
2017-09-08T10:58:39.676Z,224
2017-09-08T10:59:39.696Z,222
2017-09-08T11:00:39.765Z,221
2017-09-08T11:01:39.766Z,225
2017-09-08T11:02:39.697Z,234
2017-09-08T11:03:39.743Z,234
2017-09-08T11:04:39.719Z,236
2017-09-08T11:05:39.777Z,236
2017-09-08T11:06:39.745Z,241
2017-09-08T11:07:39.774Z,257
2017-09-08T11:08:39.701Z,271
2017-09-08T11:09:39.707Z,282
2017-09-08T11:10:39.670Z,298
2017-09-08T11:11:39.735Z,310
2017-09-08T11:12:39.678Z,323
2017-09-08T11:13:39.703Z,341
2017-09-08T11:14:39.667Z,350
2017-09-08T11:15:39.706Z,364
2017-09-08T11:16:39.680Z,387
2017-09-08T11:17:39.674Z,407
2017-09-08T11:18:39.678Z,409
2017-09-08T11:19:39.758Z,405
2017-09-08T11:20:39.717Z,394
2017-09-08T11:21:39.676Z,382
2017-09-08T11:22:39.678Z,375
2017-09-08T11:23:39.746Z,370
2017-09-08T11:24:39.673Z,365
2017-09-08T11:25:39.681Z,368
2017-09-08T11:26:39.706Z,378
2017-09-08T11:27:39.689Z,380
2017-09-08T11:28:39.717Z,384
2017-09-08T11:29:39.719Z,388
2017-09-08T11:30:39.673Z,385
2017-09-08T11:31:39.774Z,389
2017-09-08T11:32:39.704Z,402
2017-09-08T11:33:39.672Z,389
2017-09-08T11:34:39.678Z,382
2017-09-08T11:35:39.678Z,385
2017-09-08T11:36:39.685Z,375
2017-09-08T11:37:39.682Z,360
2017-09-08T11:38:39.699Z,380
2017-09-08T11:39:39.705Z,361
2017-09-08T11:40:39.677Z,409
2017-09-08T11:41:39.718Z,441
2017-09-08T11:42:39.772Z,474
2017-09-08T11:43:39.683Z,443
2017-09-08T11:44:39.685Z,411
2017-09-08T11:45:39.731Z,420
2017-09-08T11:46:39.702Z,475
2017-09-08T11:47:39.704Z,373
2017-09-08T11:48:39.691Z,301
2017-09-08T11:49:39.707Z,269
2017-09-08T11:50:39.704Z,249
2017-09-08T11:51:39.741Z,255
2017-09-08T11:52:39.686Z,252
2017-09-08T11:53:39.784Z,249
2017-09-08T11:54:39.788Z,228
2017-09-08T11:55:39.743Z,211
2017-09-08T11:56:39.720Z,214
2017-09-08T11:57:39.719Z,215
2017-09-08T11:58:39.699Z,196
2017-09-08T11:59:39.704Z,178
2017-09-08T12:00:39.719Z,160
2017-09-08T12:01:39.705Z,159
2017-09-08T12:02:39.791Z,160
2017-09-08T12:03:39.789Z,168
2017-09-08T12:04:39.742Z,173
2017-09-08T12:05:39.691Z,175
2017-09-08T12:06:39.701Z,175
2017-09-08T12:07:39.696Z,169
2017-09-08T12:08:39.691Z,185
2017-09-08T12:09:39.746Z,234
2017-09-08T12:10:39.735Z,272
2017-09-08T12:11:39.733Z,265
2017-09-08T12:12:39.703Z,271
2017-09-08T12:13:39.711Z,271
2017-09-08T12:14:39.702Z,248
2017-09-08T12:15:39.751Z,236
2017-09-08T12:16:39.734Z,235
2017-09-08T12:17:39.694Z,242
2017-09-08T12:18:39.695Z,233
2017-09-08T12:19:39.715Z,256
2017-09-08T12:20:39.792Z,269
2017-09-08T12:21:39.882Z,276
2017-09-08T12:22:39.741Z,259
2017-09-08T12:23:39.704Z,253
2017-09-08T12:24:39.741Z,253
2017-09-08T12:25:39.706Z,231
2017-09-08T12:26:39.730Z,192
2017-09-08T12:27:39.825Z,180
2017-09-08T12:28:39.756Z,167
2017-09-08T12:29:39.739Z,155
2017-09-08T12:30:39.706Z,145
2017-09-08T12:31:39.738Z,146
2017-09-08T12:32:39.714Z,149
2017-09-08T12:33:39.807Z,160
2017-09-08T12:34:39.764Z,177
2017-09-08T12:35:39.768Z,187
2017-09-08T12:36:39.705Z,190
2017-09-08T12:37:39.747Z,173
2017-09-08T12:38:39.764Z,206
2017-09-08T12:39:39.763Z,257
2017-09-08T12:40:39.764Z,259
2017-09-08T12:41:39.721Z,234
2017-09-08T12:42:39.744Z,228
2017-09-08T12:43:39.718Z,212
2017-09-08T12:44:39.728Z,210
2017-09-08T12:45:39.767Z,196
2017-09-08T12:46:39.766Z,161
2017-09-08T12:47:39.724Z,132
2017-09-08T12:48:39.756Z,132
2017-09-08T12:49:39.747Z,153
2017-09-08T12:50:39.724Z,175
2017-09-08T12:51:39.815Z,188
2017-09-08T12:52:39.721Z,193
2017-09-08T12:53:39.772Z,203
2017-09-08T12:54:39.757Z,201
2017-09-08T12:55:39.817Z,201
2017-09-08T12:56:39.720Z,180
2017-09-08T12:57:39.724Z,156
2017-09-08T12:58:39.722Z,146
2017-09-08T12:59:39.779Z,125
2017-09-08T13:00:39.732Z,97
2017-09-08T13:01:39.765Z,96
2017-09-08T13:02:39.752Z,94
2017-09-08T13:03:39.765Z,103
2017-09-08T13:04:39.750Z,108
2017-09-08T13:05:39.730Z,115
2017-09-08T13:06:39.848Z,141
2017-09-08T13:07:39.786Z,161
2017-09-08T13:08:39.782Z,172
2017-09-08T13:09:39.782Z,174
2017-09-08T13:10:39.776Z,178
2017-09-08T13:11:39.834Z,175
2017-09-08T13:12:39.730Z,187
2017-09-08T13:13:39.737Z,212
2017-09-08T13:14:39.754Z,229
2017-09-08T13:15:39.786Z,231
2017-09-08T13:16:39.787Z,227
2017-09-08T13:17:39.838Z,224
2017-09-08T13:18:39.832Z,227
2017-09-08T13:19:39.809Z,227
2017-09-08T13:20:39.752Z,216
2017-09-08T13:21:39.762Z,204
2017-09-08T13:22:39.774Z,203
2017-09-08T13:23:39.753Z,205
2017-09-08T13:24:39.760Z,204
2017-09-08T13:25:39.839Z,200
2017-09-08T13:26:39.778Z,197
2017-09-08T13:27:39.763Z,196
2017-09-08T13:28:39.738Z,195
2017-09-08T13:29:39.792Z,197
2017-09-08T13:30:39.696Z,199
2017-09-08T13:31:39.650Z,199
2017-09-08T13:32:39.697Z,201
2017-09-08T13:33:39.751Z,201
2017-09-08T13:34:39.700Z,197
2017-09-08T13:35:39.743Z,189
2017-09-08T13:36:39.699Z,178
2017-09-08T13:37:39.669Z,167
2017-09-08T13:38:39.714Z,161
2017-09-08T13:39:39.701Z,158
2017-09-08T13:40:39.713Z,158
2017-09-08T13:41:39.706Z,156
2017-09-08T13:42:39.650Z,159
2017-09-08T13:43:39.710Z,167
2017-09-08T13:44:39.666Z,174
2017-09-08T13:45:39.716Z,176
2017-09-08T13:46:39.664Z,181
2017-09-08T13:47:39.655Z,187
2017-09-08T13:48:39.706Z,191
2017-09-08T13:49:39.754Z,195
2017-09-08T13:50:39.673Z,204
2017-09-08T13:51:39.710Z,199
2017-09-08T13:52:39.756Z,187
2017-09-08T13:53:39.709Z,180
2017-09-08T13:54:39.666Z,180
2017-09-08T13:55:39.673Z,183
2017-09-08T13:56:39.780Z,186
2017-09-08T13:57:39.717Z,192
2017-09-08T13:58:39.672Z,197
2017-09-08T13:59:39.661Z,202
2017-09-08T14:00:39.666Z,209
2017-09-08T14:01:39.667Z,209
2017-09-08T14:02:39.719Z,202
2017-09-08T14:03:39.681Z,191
2017-09-08T14:04:39.722Z,184
2017-09-08T14:05:39.664Z,178
2017-09-08T14:06:39.664Z,171
2017-09-08T14:07:39.725Z,166
2017-09-08T14:08:39.726Z,160
2017-09-08T14:09:39.662Z,158
2017-09-08T14:10:39.744Z,155
2017-09-08T14:11:39.691Z,155
2017-09-08T14:12:39.684Z,156
2017-09-08T14:13:39.701Z,157
2017-09-08T14:14:39.672Z,155
2017-09-08T14:15:39.735Z,152
2017-09-08T14:16:39.684Z,146